createdAt,value
2022-11-27T00:00:56.369Z,5.02
2022-11-27T00:01:57.891Z,5.01
2022-11-27T00:02:59.545Z,5.00
2022-11-27T00:04:01.332Z,4.98
2022-11-27T00:05:02.926Z,4.98
2022-11-27T00:06:04.617Z,5.00
2022-11-27T00:07:06.116Z,5.00
2022-11-27T00:08:07.695Z,4.99
2022-11-27T00:09:13.579Z,4.89
2022-11-27T00:10:15.131Z,4.65
2022-11-27T00:11:20.100Z,4.44
2022-11-27T00:12:21.693Z,4.17
2022-11-27T00:13:23.578Z,3.81
2022-11-27T00:14:25.135Z,3.45
2022-11-27T00:15:26.763Z,3.21
2022-11-27T00:16:28.965Z,3.04
2022-11-27T00:17:30.948Z,2.98
2022-11-27T00:18:33.362Z,2.84
2022-11-27T00:19:34.935Z,2.64
2022-11-27T00:20:36.801Z,2.50
2022-11-27T00:21:38.862Z,2.49
2022-11-27T00:22:40.394Z,2.39
2022-11-27T00:23:42.346Z,2.35
2022-11-27T00:24:44.437Z,2.37
2022-11-27T00:25:52.445Z,2.33
2022-11-27T00:26:54.048Z,2.43
2022-11-27T00:27:55.591Z,2.47
2022-11-27T00:28:57.770Z,2.51
2022-11-27T00:29:59.277Z,2.52
2022-11-27T00:31:12.624Z,2.54
2022-11-27T00:32:14.213Z,2.57
2022-11-27T00:33:15.709Z,2.58
2022-11-27T00:34:17.271Z,2.60
2022-11-27T00:35:18.931Z,2.63
2022-11-27T00:36:20.582Z,2.66
2022-11-27T00:37:22.159Z,2.69
2022-11-27T00:38:23.912Z,2.66
2022-11-27T00:39:25.496Z,2.63
2022-11-27T00:40:27.038Z,2.66
2022-11-27T00:41:30.385Z,2.73
2022-11-27T00:42:32.058Z,2.70
2022-11-27T00:43:43.697Z,2.66
2022-11-27T00:44:46.336Z,2.56
2022-11-27T00:45:50.952Z,2.63
2022-11-27T00:46:52.563Z,2.71
2022-11-27T00:47:54.139Z,2.81
2022-11-27T00:48:56.944Z,2.94
2022-11-27T00:49:58.858Z,3.10
2022-11-27T00:51:01.828Z,3.22
2022-11-27T00:52:03.701Z,3.28
2022-11-27T00:53:05.262Z,3.38
2022-11-27T00:54:07.555Z,3.50
2022-11-27T00:55:09.335Z,3.62
2022-11-27T00:56:16.629Z,3.72
2022-11-27T00:57:18.166Z,3.78
2022-11-27T00:58:19.784Z,3.85
2022-11-27T00:59:21.311Z,3.91
2022-11-27T01:00:23.374Z,3.98
2022-11-27T01:01:34.989Z,4.02
2022-11-27T01:02:36.610Z,4.07
2022-11-27T01:03:38.139Z,4.10
2022-11-27T01:04:40.015Z,4.13
2022-11-27T01:05:41.736Z,4.17
2022-11-27T01:06:44.439Z,4.23
2022-11-27T01:07:46.098Z,4.29
2022-11-27T01:08:48.274Z,4.32
2022-11-27T01:09:49.789Z,4.35
2022-11-27T01:10:56.386Z,4.39
2022-11-27T01:11:58.034Z,4.41
2022-11-27T01:12:59.567Z,4.40
2022-11-27T01:14:04.907Z,4.44
2022-11-27T01:15:06.983Z,4.45
2022-11-27T01:16:17.328Z,4.34
2022-11-27T01:17:18.956Z,4.23
2022-11-27T01:18:20.489Z,4.16
2022-11-27T01:19:22.055Z,4.19
2022-11-27T01:20:23.621Z,4.19
2022-11-27T01:21:28.185Z,4.12
2022-11-27T01:22:29.727Z,3.98
2022-11-27T01:23:31.480Z,3.84
2022-11-27T01:24:33.014Z,3.80
2022-11-27T01:25:36.276Z,3.76
2022-11-27T01:26:37.810Z,3.71
2022-11-27T01:27:39.376Z,3.69
2022-11-27T01:28:41.438Z,3.70
2022-11-27T01:29:42.982Z,3.59
2022-11-27T01:30:44.569Z,3.49
2022-11-27T01:31:46.295Z,3.53
2022-11-27T01:32:47.989Z,3.53
2022-11-27T01:33:54.004Z,3.55
2022-11-27T01:34:55.578Z,3.61
2022-11-27T01:35:58.883Z,3.69
2022-11-27T01:37:00.458Z,3.73
2022-11-27T01:38:02.076Z,3.73
2022-11-27T01:39:04.200Z,3.69
2022-11-27T01:40:06.727Z,3.70
2022-11-27T01:41:15.510Z,3.71
2022-11-27T01:42:17.022Z,3.73
2022-11-27T01:43:56.254Z,3.69
2022-11-27T01:44:57.808Z,3.81
2022-11-27T01:45:59.523Z,3.88
2022-11-27T01:47:04.233Z,3.96
2022-11-27T01:48:05.913Z,4.02
2022-11-27T01:49:10.365Z,4.07
2022-11-27T01:50:19.029Z,4.14
2022-11-27T01:51:23.014Z,4.21
2022-11-27T01:52:32.941Z,4.27
2022-11-27T01:53:34.779Z,4.34
2022-11-27T01:54:51.658Z,4.40
2022-11-27T01:55:58.773Z,4.45
2022-11-27T01:57:04.640Z,4.50
2022-11-27T01:58:11.329Z,4.53
2022-11-27T01:59:13.410Z,4.61
2022-11-27T02:00:17.710Z,4.63
2022-11-27T02:01:19.318Z,4.62
2022-11-27T02:02:21.061Z,4.63
2022-11-27T02:03:23.301Z,4.63
2022-11-27T02:04:24.929Z,4.62
2022-11-27T02:05:28.695Z,4.65
2022-11-27T02:06:30.315Z,4.62
2022-11-27T02:07:32.012Z,4.60
2022-11-27T02:08:33.586Z,4.61
2022-11-27T02:09:35.494Z,4.55
2022-11-27T02:10:43.011Z,4.51
2022-11-27T02:12:25.301Z,4.44
2022-11-27T02:13:41.042Z,4.37
2022-11-27T02:14:50.427Z,4.29
2022-11-27T02:16:08.942Z,4.17
2022-11-27T02:17:39.445Z,3.94
2022-11-27T02:18:52.911Z,3.88
2022-11-27T02:20:19.132Z,3.76
2022-11-27T02:21:47.104Z,3.64
2022-11-27T02:23:09.966Z,3.55
2022-11-27T02:24:31.905Z,3.48
2022-11-27T02:25:48.596Z,3.43
2022-11-27T02:27:27.134Z,3.30
2022-11-27T02:28:35.290Z,3.29
2022-11-27T02:29:36.965Z,3.23
2022-11-27T02:30:46.295Z,3.10
2022-11-27T02:32:20.122Z,3.09
2022-11-27T02:33:22.167Z,3.14
2022-11-27T02:34:23.997Z,3.11
2022-11-27T02:35:37.682Z,2.99
2022-11-27T02:36:43.787Z,2.83
2022-11-27T02:37:50.478Z,2.72
2022-11-27T02:38:59.686Z,2.83
2022-11-27T02:40:07.885Z,2.91
2022-11-27T02:41:42.203Z,3.04
2022-11-27T02:42:50.032Z,3.17
2022-11-27T02:43:53.681Z,3.24
2022-11-27T02:45:07.825Z,3.32
2022-11-27T02:46:10.976Z,3.44
2022-11-27T02:47:14.478Z,3.52
2022-11-27T02:48:20.362Z,3.63
2022-11-27T02:49:22.451Z,3.72
2022-11-27T02:50:26.273Z,3.78
2022-11-27T02:51:37.344Z,3.82
2022-11-27T02:52:39.892Z,3.88
2022-11-27T02:53:57.573Z,3.96
2022-11-27T02:55:03.390Z,4.03
2022-11-27T02:56:12.735Z,4.13
2022-11-27T02:57:16.067Z,4.21
2022-11-27T02:58:22.242Z,4.25
2022-11-27T02:59:26.692Z,4.11
2022-11-27T03:00:30.135Z,3.92
2022-11-27T03:01:38.794Z,3.84
2022-11-27T03:02:46.486Z,3.76
2022-11-27T03:03:55.654Z,3.62
2022-11-27T03:05:00.670Z,3.50
2022-11-27T03:06:08.163Z,3.40
2022-11-27T03:07:16.936Z,3.24
2022-11-27T03:08:30.994Z,3.19
2022-11-27T03:09:38.687Z,3.10
2022-11-27T03:10:57.070Z,3.04
2022-11-27T03:11:59.209Z,2.82
2022-11-27T03:13:02.555Z,2.74
2022-11-27T03:14:08.320Z,2.86
2022-11-27T03:15:10.495Z,3.02
2022-11-27T03:16:15.128Z,3.18
2022-11-27T03:17:41.504Z,3.24
2022-11-27T03:19:03.486Z,3.37
2022-11-27T03:20:27.882Z,3.43
2022-11-27T03:21:42.274Z,3.50
2022-11-27T03:22:44.062Z,3.48
2022-11-27T03:23:45.723Z,3.44
2022-11-27T03:24:49.883Z,3.46
2022-11-27T03:25:51.775Z,3.47
2022-11-27T03:26:53.333Z,3.41
2022-11-27T03:28:01.170Z,3.39
2022-11-27T03:29:06.219Z,3.46
2022-11-27T03:30:09.729Z,3.53
2022-11-27T03:31:12.104Z,3.62
2022-11-27T03:32:14.687Z,3.71
2022-11-27T03:33:17.558Z,3.81
2022-11-27T03:34:19.225Z,3.90
2022-11-27T03:35:24.643Z,3.97
2022-11-27T03:36:26.265Z,4.05
2022-11-27T03:37:28.305Z,4.15
2022-11-27T03:38:29.858Z,4.26
2022-11-27T03:39:32.117Z,4.33
2022-11-27T03:41:00.094Z,4.39
2022-11-27T03:42:13.525Z,4.45
2022-11-27T03:43:23.128Z,4.45
2022-11-27T03:44:47.515Z,4.46
2022-11-27T03:45:56.511Z,4.48
2022-11-27T03:47:16.785Z,4.50
2022-11-27T03:48:27.276Z,4.46
2022-11-27T03:49:34.011Z,4.46
2022-11-27T03:50:56.818Z,4.47
2022-11-27T03:52:55.688Z,4.50
2022-11-27T03:54:15.608Z,4.51
2022-11-27T03:55:29.297Z,4.54
2022-11-27T03:56:59.772Z,4.57
2022-11-27T03:58:06.274Z,4.57
2022-11-27T03:59:17.971Z,4.54
2022-11-27T04:00:19.814Z,4.53
2022-11-27T04:01:24.753Z,4.54
2022-11-27T04:02:38.435Z,4.53
2022-11-27T04:03:40.174Z,4.51
2022-11-27T04:04:42.212Z,4.53
2022-11-27T04:05:43.925Z,4.54
2022-11-27T04:06:45.583Z,4.55
2022-11-27T04:07:47.390Z,4.55
2022-11-27T04:08:49.641Z,4.54
2022-11-27T04:09:51.209Z,4.52
2022-11-27T04:10:53.028Z,4.47
2022-11-27T04:11:54.616Z,4.46
2022-11-27T04:12:56.639Z,4.46
2022-11-27T04:13:58.390Z,4.47
2022-11-27T04:15:00.414Z,4.55
2022-11-27T04:16:02.257Z,4.59
2022-11-27T04:17:03.962Z,4.63
2022-11-27T04:18:05.828Z,4.68
2022-11-27T04:19:08.187Z,4.58
2022-11-27T04:20:12.347Z,4.44
2022-11-27T04:21:13.969Z,4.27
2022-11-27T04:22:15.517Z,4.22
2022-11-27T04:23:17.034Z,4.19
2022-11-27T04:24:18.575Z,4.01
2022-11-27T04:25:20.110Z,3.93
2022-11-27T04:26:21.719Z,3.76
2022-11-27T04:27:23.353Z,3.70
2022-11-27T04:28:24.906Z,3.62
2022-11-27T04:29:26.457Z,3.57
2022-11-27T04:30:28.065Z,3.53
2022-11-27T04:31:29.646Z,3.50
2022-11-27T04:32:31.270Z,3.56
2022-11-27T04:33:32.987Z,3.62
2022-11-27T04:34:34.725Z,3.65
2022-11-27T04:35:36.331Z,3.71
2022-11-27T04:36:39.613Z,3.73
2022-11-27T04:37:41.429Z,3.71
2022-11-27T04:38:43.038Z,3.69
2022-11-27T04:39:44.555Z,3.67
2022-11-27T04:40:46.304Z,3.75
2022-11-27T04:41:48.065Z,3.83
2022-11-27T04:42:50.075Z,3.89
2022-11-27T04:43:51.604Z,3.90
2022-11-27T04:44:53.202Z,3.96
2022-11-27T04:45:54.819Z,4.00
2022-11-27T04:46:56.499Z,4.05
2022-11-27T04:47:58.170Z,4.11
2022-11-27T04:48:59.691Z,4.17
2022-11-27T04:50:01.504Z,4.19
2022-11-27T04:51:03.130Z,4.19
2022-11-27T04:52:04.859Z,3.93
2022-11-27T04:53:06.459Z,3.92
2022-11-27T04:54:08.016Z,3.88
2022-11-27T04:55:10.190Z,3.86
2022-11-27T04:56:11.731Z,3.75
2022-11-27T04:57:15.259Z,3.62
2022-11-27T04:58:16.897Z,3.58
2022-11-27T04:59:18.548Z,3.52
2022-11-27T05:00:20.816Z,3.46
2022-11-27T05:01:22.522Z,3.37
2022-11-27T05:02:24.224Z,3.37
2022-11-27T05:03:25.768Z,3.39
2022-11-27T05:04:27.343Z,3.41
2022-11-27T05:05:28.882Z,3.40
2022-11-27T05:06:30.412Z,3.44
2022-11-27T05:07:32.034Z,3.44
2022-11-27T05:08:34.207Z,3.42
2022-11-27T05:09:35.859Z,3.40
2022-11-27T05:10:37.486Z,3.36
2022-11-27T05:11:39.308Z,3.31
2022-11-27T05:12:40.838Z,3.34
2022-11-27T05:13:42.671Z,3.34
2022-11-27T05:14:44.193Z,3.36
2022-11-27T05:15:45.785Z,3.37
2022-11-27T05:16:51.638Z,3.32
2022-11-27T05:17:53.380Z,3.18
2022-11-27T05:18:55.000Z,3.09
2022-11-27T05:19:56.519Z,3.09
2022-11-27T05:20:58.228Z,2.83
2022-11-27T05:21:59.769Z,2.71
2022-11-27T05:23:01.295Z,2.78
2022-11-27T05:24:02.915Z,2.90
2022-11-27T05:25:04.727Z,3.02
2022-11-27T05:26:06.296Z,3.07
2022-11-27T05:27:07.910Z,3.12
2022-11-27T05:28:09.445Z,3.12
2022-11-27T05:29:12.104Z,3.11
2022-11-27T05:30:13.671Z,3.11
2022-11-27T05:31:15.330Z,3.18
2022-11-27T05:32:17.028Z,3.15
2022-11-27T05:33:19.339Z,3.07
2022-11-27T05:34:21.428Z,3.14
2022-11-27T05:35:22.951Z,3.21
2022-11-27T05:36:24.893Z,3.29
2022-11-27T05:37:26.482Z,3.24
2022-11-27T05:38:28.084Z,3.25
2022-11-27T05:39:29.665Z,3.23
2022-11-27T05:40:31.250Z,3.20
2022-11-27T05:41:33.653Z,3.27
2022-11-27T05:42:35.238Z,3.35
2022-11-27T05:43:37.135Z,3.43
2022-11-27T05:44:39.142Z,3.51
2022-11-27T05:45:40.894Z,3.59
2022-11-27T05:46:43.846Z,3.63
2022-11-27T05:47:45.486Z,3.69
2022-11-27T05:48:47.302Z,3.74
2022-11-27T05:49:48.907Z,3.78
2022-11-27T05:50:50.467Z,3.83
2022-11-27T05:51:52.149Z,3.85
2022-11-27T05:52:53.712Z,3.80
2022-11-27T05:53:55.234Z,3.73
2022-11-27T05:54:56.758Z,3.60
2022-11-27T05:56:04.003Z,3.65
2022-11-27T05:57:05.522Z,3.63
2022-11-27T05:58:07.047Z,3.68
2022-11-27T05:59:10.175Z,3.71
2022-11-27T06:00:12.807Z,3.76
2022-11-27T06:01:16.445Z,3.81
2022-11-27T06:02:22.625Z,3.88
2022-11-27T06:03:25.900Z,3.95
2022-11-27T06:04:27.602Z,3.97
2022-11-27T06:05:29.146Z,4.00
2022-11-27T06:06:30.933Z,4.03
2022-11-27T06:07:32.951Z,4.06
2022-11-27T06:08:37.116Z,4.12
2022-11-27T06:09:38.681Z,4.15
2022-11-27T06:10:40.683Z,4.15
2022-11-27T06:11:43.190Z,4.18
2022-11-27T06:12:44.763Z,4.21
2022-11-27T06:13:47.270Z,4.23
2022-11-27T06:14:48.766Z,4.25
2022-11-27T06:15:50.295Z,4.28
2022-11-27T06:16:51.841Z,4.30
2022-11-27T06:17:53.425Z,4.33
2022-11-27T06:18:56.044Z,4.33
2022-11-27T06:19:57.660Z,4.35
2022-11-27T06:20:59.278Z,4.37
2022-11-27T06:22:00.798Z,4.38
2022-11-27T06:23:02.313Z,4.41
2022-11-27T06:24:04.157Z,4.44
2022-11-27T06:25:06.333Z,4.47
2022-11-27T06:26:17.262Z,4.51
2022-11-27T06:27:18.864Z,4.52
2022-11-27T06:28:20.449Z,4.47
2022-11-27T06:29:22.122Z,4.50
2022-11-27T06:30:23.659Z,4.52
2022-11-27T06:31:28.675Z,4.54
2022-11-27T06:32:30.512Z,4.58
2022-11-27T06:33:32.063Z,4.61
2022-11-27T06:34:33.656Z,4.60
2022-11-27T06:35:35.186Z,4.48
2022-11-27T06:36:38.238Z,4.45
2022-11-27T06:37:39.830Z,4.46
2022-11-27T06:38:41.512Z,4.48
2022-11-27T06:39:43.172Z,4.40
2022-11-27T06:40:44.662Z,4.30
2022-11-27T06:41:46.261Z,4.35
2022-11-27T06:42:47.826Z,4.40
2022-11-27T06:43:49.654Z,4.45
2022-11-27T06:44:51.184Z,4.53
2022-11-27T06:45:57.500Z,4.56
2022-11-27T06:46:59.098Z,4.60
2022-11-27T06:48:00.650Z,4.65
2022-11-27T06:49:02.290Z,4.67
2022-11-27T06:50:04.037Z,4.69
2022-11-27T06:51:08.072Z,4.70
2022-11-27T06:52:09.606Z,4.64
2022-11-27T06:53:11.189Z,4.65
2022-11-27T06:54:12.830Z,4.70
2022-11-27T06:55:14.406Z,4.77
2022-11-27T06:56:19.136Z,4.87
2022-11-27T06:57:20.737Z,4.90
2022-11-27T06:58:26.491Z,4.93
2022-11-27T06:59:31.246Z,4.96
2022-11-27T07:00:32.784Z,4.98
2022-11-27T07:01:34.657Z,5.00
2022-11-27T07:02:36.400Z,4.99
2022-11-27T07:03:38.091Z,5.02
2022-11-27T07:04:40.018Z,5.04
2022-11-27T07:05:41.832Z,5.08
2022-11-27T07:06:43.721Z,5.08
2022-11-27T07:07:45.358Z,5.08
2022-11-27T07:08:47.340Z,5.03
2022-11-27T07:09:48.906Z,5.05
2022-11-27T07:10:50.474Z,5.10
2022-11-27T07:11:52.020Z,5.13
2022-11-27T07:12:53.573Z,5.15
2022-11-27T07:13:57.483Z,5.20
2022-11-27T07:15:03.869Z,5.25
2022-11-27T07:16:08.372Z,5.30
2022-11-27T07:17:09.949Z,5.26
2022-11-27T07:18:12.047Z,5.18
2022-11-27T07:19:14.719Z,5.21
2022-11-27T07:20:16.392Z,5.22
2022-11-27T07:21:18.083Z,5.27
2022-11-27T07:22:19.646Z,5.26
2022-11-27T07:23:21.373Z,5.27
2022-11-27T07:24:23.053Z,5.35
2022-11-27T07:25:24.765Z,5.31
2022-11-27T07:26:28.449Z,5.09
2022-11-27T07:27:30.032Z,4.97
2022-11-27T07:28:31.569Z,5.03
2022-11-27T07:29:33.099Z,5.05
2022-11-27T07:30:36.518Z,5.04
2022-11-27T07:31:38.223Z,5.09
2022-11-27T07:32:39.868Z,5.09
2022-11-27T07:33:41.861Z,5.13
2022-11-27T07:34:43.429Z,5.15
2022-11-27T07:35:45.025Z,5.17
2022-11-27T07:36:46.822Z,5.18
2022-11-27T07:37:48.400Z,5.23
2022-11-27T07:38:50.899Z,5.26
2022-11-27T07:40:02.332Z,5.26
2022-11-27T07:41:05.873Z,5.20
2022-11-27T07:42:37.668Z,5.28
2022-11-27T07:43:29.887Z,5.39
2022-11-27T07:44:31.418Z,5.44
2022-11-27T07:45:32.974Z,5.50
2022-11-27T07:46:34.585Z,5.25
2022-11-27T07:47:36.429Z,4.91
2022-11-27T07:48:38.093Z,4.79
2022-11-27T07:49:39.607Z,4.77
2022-11-27T07:50:41.341Z,4.72
2022-11-27T07:51:42.891Z,4.60
2022-11-27T07:52:44.476Z,4.44
2022-11-27T07:53:46.394Z,4.43
2022-11-27T07:54:47.977Z,4.45
2022-11-27T07:55:49.516Z,4.48
2022-11-27T07:56:51.103Z,4.55
2022-11-27T07:57:52.610Z,4.66
2022-11-27T07:58:54.121Z,4.63
2022-11-27T07:59:55.766Z,4.47
2022-11-27T08:00:57.397Z,4.39
2022-11-27T08:01:59.055Z,4.51
2022-11-27T08:03:01.298Z,4.59
2022-11-27T08:04:03.037Z,4.69
2022-11-27T08:05:10.935Z,4.75
2022-11-27T08:06:19.382Z,4.88
2022-11-27T08:07:20.978Z,5.01
2022-11-27T08:08:22.581Z,5.17
2022-11-27T08:09:24.211Z,5.30
2022-11-27T08:10:25.706Z,5.33
2022-11-27T08:11:33.049Z,5.36
2022-11-27T08:12:34.629Z,5.30
2022-11-27T08:13:36.178Z,5.37
2022-11-27T08:14:38.130Z,5.39
2022-11-27T08:15:39.944Z,5.38
2022-11-27T08:16:41.609Z,5.39
2022-11-27T08:17:43.298Z,5.46
2022-11-27T08:18:44.856Z,5.51
2022-11-27T08:19:46.425Z,5.58
2022-11-27T08:20:48.086Z,5.62
2022-11-27T08:21:50.387Z,5.68
2022-11-27T08:22:52.050Z,5.67
2022-11-27T08:23:53.894Z,5.70
2022-11-27T08:24:55.480Z,5.67
2022-11-27T08:25:57.065Z,5.76
2022-11-27T08:26:58.673Z,5.84
2022-11-27T08:28:00.220Z,5.94
2022-11-27T08:29:01.775Z,6.00
2022-11-27T08:30:04.909Z,6.06
2022-11-27T08:31:08.318Z,6.05
2022-11-27T08:32:10.508Z,6.13
2022-11-27T08:33:14.917Z,6.20
2022-11-27T08:34:16.564Z,6.22
2022-11-27T08:35:18.259Z,6.24
2022-11-27T08:36:20.101Z,6.23
2022-11-27T08:37:22.120Z,6.29
2022-11-27T08:38:24.218Z,6.32
2022-11-27T08:39:26.715Z,6.30
2022-11-27T08:40:28.256Z,6.33
2022-11-27T08:41:29.790Z,6.37
2022-11-27T08:42:31.628Z,6.42
2022-11-27T08:43:33.772Z,6.41
2022-11-27T08:44:35.302Z,6.41
2022-11-27T08:45:39.949Z,6.45
2022-11-27T08:46:43.651Z,6.45
2022-11-27T08:47:45.194Z,6.38
2022-11-27T08:48:46.700Z,6.28
2022-11-27T08:49:48.483Z,6.19
2022-11-27T08:50:50.714Z,5.99
2022-11-27T08:51:52.280Z,5.99
2022-11-27T08:52:53.810Z,6.10
2022-11-27T08:53:55.487Z,6.17
2022-11-27T08:54:57.994Z,6.26
2022-11-27T08:56:11.804Z,6.35
2022-11-27T08:57:13.358Z,6.46
2022-11-27T08:58:14.967Z,6.47
2022-11-27T08:59:16.602Z,6.53
2022-11-27T09:00:21.383Z,6.48
2022-11-27T09:01:27.742Z,6.45
2022-11-27T09:02:29.314Z,6.53
2022-11-27T09:03:30.874Z,6.59
2022-11-27T09:04:32.473Z,6.56
2022-11-27T09:05:34.245Z,6.54
2022-11-27T09:06:36.304Z,6.57
2022-11-27T09:07:38.003Z,6.60
2022-11-27T09:08:41.102Z,6.55
2022-11-27T09:09:42.987Z,6.60
2022-11-27T09:10:44.501Z,6.65
2022-11-27T09:11:46.048Z,6.69
2022-11-27T09:12:49.349Z,6.67
2022-11-27T09:13:50.930Z,6.69
2022-11-27T09:14:52.479Z,6.66
2022-11-27T09:15:55.467Z,6.66
2022-11-27T09:16:57.102Z,6.56
2022-11-27T09:17:58.686Z,6.52
2022-11-27T09:19:00.458Z,6.46
2022-11-27T09:20:02.033Z,6.29
2022-11-27T09:21:07.267Z,6.31
2022-11-27T09:22:08.833Z,6.35
2022-11-27T09:23:14.385Z,6.29
2022-11-27T09:24:16.273Z,6.25
2022-11-27T09:25:17.922Z,6.27
2022-11-27T09:26:19.637Z,6.28
2022-11-27T09:27:21.218Z,6.28
2022-11-27T09:28:24.625Z,6.31
2022-11-27T09:29:29.787Z,6.38
2022-11-27T09:30:31.317Z,6.45
2022-11-27T09:31:33.033Z,6.46
2022-11-27T09:32:34.962Z,6.54
2022-11-27T09:33:38.501Z,6.54
2022-11-27T09:34:40.460Z,6.55
2022-11-27T09:35:42.324Z,6.55
2022-11-27T09:36:44.057Z,6.61
2022-11-27T09:37:45.615Z,6.69
2022-11-27T09:38:47.491Z,6.73
2022-11-27T09:39:49.045Z,6.80
2022-11-27T09:40:53.301Z,6.87
2022-11-27T09:41:57.295Z,6.91
2022-11-27T09:43:09.764Z,6.92
2022-11-27T09:44:45.388Z,6.71
2022-11-27T09:45:54.812Z,6.36
2022-11-27T09:46:59.647Z,6.33
2022-11-27T09:48:04.524Z,6.30
2022-11-27T09:49:13.981Z,6.28
2022-11-27T09:50:21.308Z,6.30
2022-11-27T09:51:34.174Z,6.35
2022-11-27T09:52:54.784Z,6.15
2022-11-27T09:54:06.861Z,5.99
2022-11-27T09:55:31.766Z,5.92
2022-11-27T09:56:36.174Z,5.92
2022-11-27T09:57:40.549Z,6.06
2022-11-27T09:59:03.829Z,5.95
2022-11-27T10:00:20.184Z,5.74
2022-11-27T10:01:34.918Z,5.61
2022-11-27T10:02:43.063Z,5.53
2022-11-27T10:03:46.122Z,5.56
2022-11-27T10:05:12.278Z,5.67
2022-11-27T10:06:22.196Z,5.77
2022-11-27T10:07:37.022Z,5.74
2022-11-27T10:08:48.862Z,5.71
2022-11-27T10:10:00.297Z,6.13
2022-11-27T10:11:04.501Z,5.96
2022-11-27T10:12:22.885Z,5.88
2022-11-27T10:13:33.619Z,5.63
2022-11-27T10:14:47.417Z,5.52
2022-11-27T10:16:03.034Z,5.61
2022-11-27T10:17:33.694Z,5.61
2022-11-27T10:18:47.954Z,5.54
2022-11-27T10:20:01.562Z,5.67
2022-11-27T10:21:14.005Z,5.61
2022-11-27T10:22:44.896Z,5.44
2022-11-27T10:23:51.619Z,5.47
2022-11-27T10:25:28.067Z,5.58
2022-11-27T10:27:02.278Z,5.74
2022-11-27T10:28:09.566Z,5.85
2022-11-27T10:29:29.996Z,5.55
2022-11-27T10:30:37.431Z,5.55
2022-11-27T10:31:41.632Z,5.57
2022-11-27T10:32:55.059Z,5.53
2022-11-27T10:34:02.833Z,5.67
2022-11-27T10:35:16.197Z,5.82
2022-11-27T10:36:30.595Z,5.95
2022-11-27T10:37:39.721Z,6.01
2022-11-27T10:38:43.267Z,5.95
2022-11-27T10:39:51.812Z,5.95
2022-11-27T10:42:55.386Z,6.07
2022-11-27T10:44:01.857Z,6.01
2022-11-27T10:45:03.651Z,5.93
2022-11-27T10:46:17.509Z,5.92
2022-11-27T10:47:24.164Z,6.03
2022-11-27T10:48:27.670Z,6.15
2022-11-27T10:49:29.776Z,6.30
2022-11-27T10:50:31.297Z,6.40
2022-11-27T10:51:35.981Z,6.40
2022-11-27T10:52:51.115Z,6.30
2022-11-27T10:53:54.786Z,6.28
2022-11-27T10:55:00.192Z,6.29
2022-11-27T10:56:20.057Z,6.31
2022-11-27T10:57:24.417Z,6.26
2022-11-27T10:58:36.730Z,6.39
2022-11-27T10:59:48.358Z,6.57
2022-11-27T11:01:05.615Z,6.67
2022-11-27T11:02:29.749Z,6.78
2022-11-27T11:03:31.402Z,6.89
2022-11-27T11:04:38.417Z,6.93
2022-11-27T11:06:21.235Z,7.02
2022-11-27T11:07:29.462Z,6.97
2022-11-27T11:08:33.366Z,6.96
2022-11-27T11:09:36.022Z,7.04
2022-11-27T11:11:02.462Z,7.14
2022-11-27T11:12:18.574Z,7.18
2022-11-27T11:13:20.202Z,7.26
2022-11-27T11:14:24.348Z,7.32
2022-11-27T11:15:25.940Z,7.41
2022-11-27T11:16:34.978Z,7.50
2022-11-27T11:17:40.840Z,7.57
2022-11-27T11:18:43.641Z,7.66
2022-11-27T11:19:46.007Z,7.59
2022-11-27T11:20:50.185Z,7.50
2022-11-27T11:21:52.345Z,7.54
2022-11-27T11:22:54.282Z,7.54
2022-11-27T11:23:58.882Z,7.59
2022-11-27T11:25:00.494Z,7.59
2022-11-27T11:26:07.352Z,7.41
2022-11-27T11:27:21.491Z,7.06
2022-11-27T11:28:24.493Z,6.84
2022-11-27T11:29:29.132Z,6.71
2022-11-27T11:30:30.818Z,6.67
2022-11-27T11:31:37.087Z,6.65
2022-11-27T11:32:40.586Z,6.77
2022-11-27T11:33:57.655Z,6.93
2022-11-27T11:35:23.342Z,7.04
2022-11-27T11:36:25.180Z,7.15
2022-11-27T11:37:38.776Z,7.21
2022-11-27T11:38:44.696Z,7.27
2022-11-27T11:39:53.614Z,7.37
2022-11-27T11:41:07.004Z,7.45
2022-11-27T11:42:11.204Z,7.33
2022-11-27T11:43:32.139Z,7.33
2022-11-27T11:44:37.989Z,7.31
2022-11-27T11:45:48.809Z,7.32
2022-11-27T11:46:54.860Z,7.31
2022-11-27T11:47:59.305Z,7.38
2022-11-27T11:49:24.962Z,7.49
2022-11-27T11:50:37.278Z,7.55
2022-11-27T11:51:47.457Z,7.60
2022-11-27T11:52:59.601Z,7.62
2022-11-27T11:54:31.548Z,7.50
2022-11-27T11:55:33.015Z,7.39
2022-11-27T11:56:39.951Z,7.41
2022-11-27T11:57:58.244Z,7.54
2022-11-27T11:59:03.879Z,7.61
2022-11-27T12:00:11.109Z,7.56
2022-11-27T12:01:54.327Z,7.60
2022-11-27T12:03:17.703Z,7.39
2022-11-27T12:04:31.485Z,7.15
2022-11-27T12:05:33.084Z,7.20
2022-11-27T12:06:45.291Z,7.22
2022-11-27T12:07:52.822Z,7.13
2022-11-27T12:09:06.472Z,7.13
2022-11-27T12:10:16.894Z,7.24
2022-11-27T12:11:30.830Z,7.35
2022-11-27T12:12:47.453Z,7.42
2022-11-27T12:14:11.475Z,7.54
2022-11-27T12:15:36.323Z,7.60
2022-11-27T12:17:03.490Z,7.75
2022-11-27T12:18:26.236Z,7.73
2022-11-27T12:19:36.705Z,7.64
2022-11-27T12:20:41.230Z,7.49
2022-11-27T12:21:45.390Z,7.40
2022-11-27T12:23:01.945Z,7.53
2022-11-27T12:24:11.802Z,7.51
2022-11-27T12:25:25.290Z,7.62
2022-11-27T12:26:42.512Z,7.80
2022-11-27T12:28:07.576Z,7.91
2022-11-27T12:29:15.083Z,7.77
2022-11-27T12:30:36.587Z,7.80
2022-11-27T12:32:05.105Z,7.90
2022-11-27T12:33:27.256Z,7.74
2022-11-27T12:34:50.152Z,7.58
2022-11-27T12:35:58.168Z,7.54
2022-11-27T12:37:11.119Z,7.66
2022-11-27T12:38:28.178Z,7.78
2022-11-27T12:39:57.171Z,7.88
2022-11-27T12:41:32.694Z,7.92
2022-11-27T12:42:49.880Z,7.56
2022-11-27T12:44:00.171Z,7.43
2022-11-27T12:45:28.154Z,7.37
2022-11-27T12:46:55.350Z,7.25
2022-11-27T12:48:05.664Z,7.19
2022-11-27T12:49:40.439Z,7.12
2022-11-27T12:51:06.931Z,6.86
2022-11-27T12:52:19.578Z,6.72
2022-11-27T12:53:39.296Z,6.74
2022-11-27T12:54:52.917Z,6.78
2022-11-27T12:56:06.805Z,6.95
2022-11-27T12:57:16.892Z,7.04
2022-11-27T12:58:27.044Z,7.07
2022-11-27T12:59:38.902Z,7.08
2022-11-27T13:00:43.732Z,7.08
2022-11-27T13:02:25.190Z,7.00
2022-11-27T13:03:39.158Z,6.96
2022-11-27T13:05:08.133Z,6.88
2022-11-27T13:06:17.702Z,6.86
2022-11-27T13:07:24.936Z,6.83
2022-11-27T13:08:51.043Z,6.83
2022-11-27T13:10:12.167Z,6.85
2022-11-27T13:11:17.037Z,6.97
2022-11-27T13:12:28.781Z,7.12
2022-11-27T13:13:35.977Z,7.24
2022-11-27T13:14:41.169Z,7.26
2022-11-27T13:16:00.829Z,7.13
2022-11-27T13:17:15.638Z,7.07
2022-11-27T13:18:29.215Z,7.05
2022-11-27T13:19:35.482Z,7.05
2022-11-27T13:20:39.839Z,7.03
2022-11-27T13:21:42.990Z,7.02
2022-11-27T13:22:45.852Z,6.98
2022-11-27T13:23:47.366Z,6.91
2022-11-27T13:24:48.940Z,6.82
2022-11-27T13:25:55.644Z,6.80
2022-11-27T13:27:14.938Z,6.83
2022-11-27T13:28:31.655Z,6.92
2022-11-27T13:29:57.372Z,7.02
2022-11-27T13:31:01.244Z,7.09
2022-11-27T13:32:04.957Z,7.19
2022-11-27T13:33:07.957Z,7.29
2022-11-27T13:34:18.405Z,7.26
2022-11-27T13:35:32.131Z,7.32
2022-11-27T13:36:40.722Z,7.32
2022-11-27T13:37:42.453Z,7.26
2022-11-27T13:38:45.203Z,7.22
2022-11-27T13:39:46.768Z,7.11
2022-11-27T13:40:55.901Z,7.05
2022-11-27T13:42:12.879Z,7.06
2022-11-27T13:43:52.800Z,7.06
2022-11-27T13:45:11.411Z,7.07
2022-11-27T13:46:26.203Z,7.10
2022-11-27T13:47:30.506Z,7.03
2022-11-27T13:48:33.563Z,6.96
2022-11-27T13:49:37.970Z,6.98
2022-11-27T13:50:46.314Z,7.05
2022-11-27T13:51:47.963Z,7.02
2022-11-27T13:52:57.429Z,7.15
2022-11-27T13:54:10.027Z,7.22
2022-11-27T13:55:23.166Z,7.13
2022-11-27T13:56:31.429Z,7.09
2022-11-27T13:57:36.250Z,7.07
2022-11-27T13:58:40.822Z,7.08
2022-11-27T13:59:54.235Z,7.14
2022-11-27T14:00:55.863Z,7.15
2022-11-27T14:02:03.327Z,7.18
2022-11-27T14:03:07.190Z,7.20
2022-11-27T14:04:10.086Z,7.18
2022-11-27T14:05:13.691Z,7.11
2022-11-27T14:06:22.216Z,7.09
2022-11-27T14:07:34.168Z,7.09
2022-11-27T14:08:35.814Z,7.13
2022-11-27T14:10:06.755Z,7.18
2022-11-27T14:11:14.390Z,7.14
2022-11-27T14:12:28.772Z,7.16
2022-11-27T14:13:55.954Z,7.21
2022-11-27T14:15:23.487Z,7.34
2022-11-27T14:16:31.219Z,7.46
2022-11-27T14:17:47.768Z,7.54
2022-11-27T14:18:52.026Z,7.56
2022-11-27T14:20:24.743Z,7.68
2022-11-27T14:21:40.347Z,7.76
2022-11-27T14:23:10.676Z,7.85
2022-11-27T14:24:23.821Z,7.95
2022-11-27T14:25:29.894Z,8.01
2022-11-27T14:26:31.761Z,8.05
2022-11-27T14:27:35.947Z,8.13
2022-11-27T14:28:38.312Z,8.19
2022-11-27T14:29:39.868Z,8.21
2022-11-27T14:30:59.862Z,8.26
2022-11-27T14:32:03.046Z,8.31
2022-11-27T14:33:05.256Z,8.34
2022-11-27T14:34:15.640Z,8.34
2022-11-27T14:35:24.770Z,8.40
2022-11-27T14:36:30.772Z,8.42
2022-11-27T14:37:32.361Z,8.46
2022-11-27T14:38:35.395Z,8.48
2022-11-27T14:39:37.976Z,8.51
2022-11-27T14:40:39.720Z,8.54
2022-11-27T14:41:41.251Z,8.55
2022-11-27T14:42:42.760Z,8.57
2022-11-27T14:43:44.319Z,8.59
2022-11-27T14:44:45.943Z,8.62
2022-11-27T14:45:52.087Z,8.65
2022-11-27T14:46:55.827Z,8.66
2022-11-27T14:47:57.474Z,8.68